Time;durP1;ratioP1;P1;durP2;ratioP2;P2;SDS_P1;SDS_P2;PMS_P1;PMS_P2;Temp;Humidity;BMP_temperature;BMP_pressure;BME280_temperature;BME280_humidity;BME280_pressure;Samples;Min_cycle;Max_cycle;Signal;HPM_P1;HPM_P2
2021/11/07 00:02:40;;;;;;;18.65;12.50;;;;;;;;;;10296320;28;20095;-53
2021/11/07 00:07:49;;;;;;;18.40;12.05;;;;;;;;;;10285081;28;20072;-56
2021/11/07 00:12:50;;;;;;;16.55;12.82;;;;;;;;;;10287405;28;20088;-53
2021/11/07 00:17:51;;;;;;;18.13;12.70;;;;;;;;;;10286847;28;20049;-57
2021/11/07 00:22:56;;;;;;;21.70;13.13;;;;;;;;;;10285710;28;20075;-56
2021/11/07 00:27:57;;;;;;;20.92;13.60;;;;;;;;;;10286523;28;20076;-56
2021/11/07 00:33:08;;;;;;;18.45;12.27;;;;;;;;;;10286064;28;20095;-55
2021/11/07 00:38:14;;;;;;;23.90;14.13;;;;;;;;;;10279317;28;20076;-58
2021/11/07 00:43:17;;;;;;;17.65;14.23;;;;;;;;;;10284118;28;20072;-55
2021/11/07 00:48:21;;;;;;;22.50;17.85;;;;;;;;;;10285158;28;20048;-54
2021/11/07 00:59:04;;;;;;;21.38;16.48;;;;;;;;;;10178684;28;20077;-55
2021/11/07 01:04:04;;;;;;;17.55;13.93;;;;;;;;;;10261753;28;20088;-55
2021/11/07 01:09:04;;;;;;;20.20;15.20;;;;;;;;;;10285794;28;20113;-56
2021/11/07 01:14:02;;;;;;;19.30;14.40;;;;;;;;;;10288397;28;20361;-55
2021/11/07 01:19:01;;;;;;;24.50;15.20;;;;;;;;;;10298695;28;20087;-53
2021/11/07 01:24:00;;;;;;;23.05;15.27;;;;;;;;;;10285434;28;20076;-56
2021/11/07 01:29:08;;;;;;;22.58;16.35;;;;;;;;;;10284934;28;20485;-56
2021/11/07 01:34:09;;;;;;;22.77;15.65;;;;;;;;;;10282001;28;20526;-57
2021/11/07 01:39:16;;;;;;;21.63;16.17;;;;;;;;;;10283521;28;20056;-55
2021/11/07 01:44:15;;;;;;;21.73;16.65;;;;;;;;;;10274281;28;20061;-56
2021/11/07 01:49:16;;;;;;;20.00;16.23;;;;;;;;;;10280155;28;20084;-55
2021/11/07 01:54:23;;;;;;;24.17;15.48;;;;;;;;;;10300946;28;20118;-55
2021/11/07 01:59:23;;;;;;;22.02;14.38;;;;;;;;;;10298066;28;20075;-56
2021/11/07 02:04:22;;;;;;;19.55;13.82;;;;;;;;;;10287650;28;20045;-55
2021/11/07 02:09:20;;;;;;;15.30;13.27;;;;;;;;;;10291950;28;20475;-54
2021/11/07 02:14:19;;;;;;;18.38;13.30;;;;;;;;;;10292127;28;20073;-54
2021/11/07 02:19:18;;;;;;;22.55;13.70;;;;;;;;;;10291605;28;20084;-56
2021/11/07 02:24:18;;;;;;;16.67;13.02;;;;;;;;;;10291759;28;20517;-56
2021/11/07 02:29:17;;;;;;;23.23;13.70;;;;;;;;;;10291317;28;20578;-56
2021/11/07 02:34:15;;;;;;;17.60;13.40;;;;;;;;;;10291032;28;20088;-57
2021/11/07 02:39:15;;;;;;;19.42;13.63;;;;;;;;;;10288488;28;20532;-54
2021/11/07 02:44:27;;;;;;;18.08;14.27;;;;;;;;;;10279410;28;20069;-57
2021/11/07 02:49:26;;;;;;;15.75;13.18;;;;;;;;;;10279313;28;20083;-52
2021/11/07 02:54:24;;;;;;;23.63;13.73;;;;;;;;;;10299959;28;20138;-56
2021/11/07 02:59:24;;;;;;;17.25;15.13;;;;;;;;;;10294412;28;20071;-57
2021/11/07 03:04:24;;;;;;;16.63;13.25;;;;;;;;;;10285943;28;20139;-55
2021/11/07 03:09:25;;;;;;;20.60;16.10;;;;;;;;;;10278569;28;20067;-56
2021/11/07 03:14:29;;;;;;;22.40;16.00;;;;;;;;;;10278722;28;20095;-51
2021/11/07 03:19:30;;;;;;;23.40;17.88;;;;;;;;;;10289459;28;20179;-54
2021/11/07 03:24:28;;;;;;;25.92;18.80;;;;;;;;;;10288707;28;20091;-57
2021/11/07 03:29:32;;;;;;;27.23;19.27;;;;;;;;;;10288945;28;20064;-54
2021/11/07 03:34:34;;;;;;;27.15;19.65;;;;;;;;;;10288101;28;20111;-51
2021/11/07 03:39:35;;;;;;;27.20;21.00;;;;;;;;;;10286090;28;20076;-53
2021/11/07 03:44:33;;;;;;;26.73;20.05;;;;;;;;;;10286500;28;20056;-54
2021/11/07 03:49:33;;;;;;;26.10;19.38;;;;;;;;;;10276954;28;20072;-57
2021/11/07 03:54:31;;;;;;;27.48;19.13;;;;;;;;;;10290907;28;20072;-57
2021/11/07 03:59:31;;;;;;;27.83;19.80;;;;;;;;;;10294133;28;20068;-56
2021/11/07 04:04:29;;;;;;;28.05;21.80;;;;;;;;;;10282857;28;20088;-54
2021/11/07 04:09:29;;;;;;;27.10;20.55;;;;;;;;;;10286903;28;20075;-56
2021/11/07 04:14:33;;;;;;;25.17;20.95;;;;;;;;;;10286679;28;20099;-57
2021/11/07 04:19:32;;;;;;;24.73;20.13;;;;;;;;;;10287273;28;20068;-57
2021/11/07 04:24:32;;;;;;;30.70;19.85;;;;;;;;;;10287753;28;20776;-55
2021/11/07 04:29:31;;;;;;;24.77;19.20;;;;;;;;;;10275644;28;20068;-56
2021/11/07 04:34:29;;;;;;;26.98;20.52;;;;;;;;;;10275291;28;20518;-56
2021/11/07 04:39:28;;;;;;;28.15;20.08;;;;;;;;;;10284011;28;20065;-57
2021/11/07 04:44:31;;;;;;;30.98;23.65;;;;;;;;;;10274778;28;20072;-57
2021/11/07 04:49:30;;;;;;;31.60;23.27;;;;;;;;;;10275156;28;20083;-54
2021/11/07 04:54:28;;;;;;;31.73;22.23;;;;;;;;;;10289040;28;20106;-57
2021/11/07 04:59:27;;;;;;;32.22;23.58;;;;;;;;;;10274660;28;20068;-56
2021/11/07 05:04:27;;;;;;;37.75;25.40;;;;;;;;;;10273412;28;20182;-57
2021/11/07 05:09:28;;;;;;;35.25;23.98;;;;;;;;;;10285504;28;20075;-57
2021/11/07 05:14:29;;;;;;;38.83;24.00;;;;;;;;;;10285083;28;20061;-51
2021/11/07 05:19:29;;;;;;;28.88;21.27;;;;;;;;;;10281856;28;20506;-55
2021/11/07 05:24:28;;;;;;;27.27;21.35;;;;;;;;;;10291404;28;20049;-53
2021/11/07 05:29:26;;;;;;;28.50;22.58;;;;;;;;;;10293994;28;20037;-54
2021/11/07 05:34:25;;;;;;;30.52;24.05;;;;;;;;;;10295455;28;20088;-56
2021/11/07 05:39:24;;;;;;;31.80;24.42;;;;;;;;;;10296447;28;20068;-56
2021/11/07 05:44:23;;;;;;;35.50;25.02;;;;;;;;;;10298691;28;20044;-56
2021/11/07 05:49:21;;;;;;;34.42;23.52;;;;;;;;;;10301725;28;20471;-55
2021/11/07 05:54:19;;;;;;;34.33;26.00;;;;;;;;;;10301900;28;20067;-57
2021/11/07 05:59:19;;;;;;;36.58;25.27;;;;;;;;;;10293496;28;20069;-56
2021/11/07 06:04:17;;;;;;;34.10;24.05;;;;;;;;;;10291932;28;20068;-55
2021/11/07 06:09:16;;;;;;;40.03;26.35;;;;;;;;;;10290670;28;20064;-55
2021/11/07 06:14:14;;;;;;;36.50;26.60;;;;;;;;;;10295638;28;20079;-56
2021/11/07 06:19:14;;;;;;;39.72;27.02;;;;;;;;;;10291383;28;20065;-56
2021/11/07 06:24:15;;;;;;;41.47;27.65;;;;;;;;;;10291147;28;20076;-55
2021/11/07 06:29:14;;;;;;;41.55;27.90;;;;;;;;;;10297827;28;20476;-57
2021/11/07 06:34:14;;;;;;;38.97;26.60;;;;;;;;;;10288970;28;20084;-58
2021/11/07 06:39:12;;;;;;;33.25;24.63;;;;;;;;;;10288548;28;20075;-54
2021/11/07 06:44:11;;;;;;;47.97;29.25;;;;;;;;;;10295793;28;20449;-57
2021/11/07 06:49:11;;;;;;;35.55;25.77;;;;;;;;;;10290119;28;20063;-55
2021/11/07 06:54:11;;;;;;;39.38;26.38;;;;;;;;;;10291245;28;20060;-54
2021/11/07 06:59:10;;;;;;;35.60;25.67;;;;;;;;;;10297627;28;20065;-56
2021/11/07 07:04:08;;;;;;;31.70;24.00;;;;;;;;;;10285331;28;20060;-57
2021/11/07 07:09:08;;;;;;;36.90;25.83;;;;;;;;;;10295363;28;20064;-58
2021/11/07 07:14:10;;;;;;;34.38;24.27;;;;;;;;;;10277409;28;20529;-55
2021/11/07 07:19:22;;;;;;;36.97;25.23;;;;;;;;;;10287463;28;20442;-57
2021/11/07 07:30:01;;;;;;;30.20;23.50;;;;;;;;;;10286691;28;20073;-56
2021/11/07 07:35:01;;;;;;;32.90;24.83;;;;;;;;;;10289924;28;20072;-57
2021/11/07 07:40:00;;;;;;;34.35;25.30;;;;;;;;;;10294063;28;20170;-55
2021/11/07 07:45:01;;;;;;;34.60;24.35;;;;;;;;;;10288847;28;20068;-57
2021/11/07 07:50:00;;;;;;;30.40;24.05;;;;;;;;;;10290381;28;20080;-56
2021/11/07 07:54:58;;;;;;;35.90;23.70;;;;;;;;;;10296490;28;20455;-56
2021/11/07 07:59:56;;;;;;;32.20;25.20;;;;;;;;;;10295250;28;20087;-55
2021/11/07 08:04:56;;;;;;;35.50;25.23;;;;;;;;;;10281572;28;20069;-56
2021/11/07 08:09:54;;;;;;;36.88;23.58;;;;;;;;;;10287412;28;20072;-54
2021/11/07 08:14:53;;;;;;;36.38;25.80;;;;;;;;;;10276076;28;20053;-56
2021/11/07 08:19:52;;;;;;;32.70;24.77;;;;;;;;;;10276546;28;20084;-55
2021/11/07 08:24:51;;;;;;;34.05;24.83;;;;;;;;;;10286947;28;20073;-57
2021/11/07 08:29:53;;;;;;;37.80;27.70;;;;;;;;;;10286880;28;20096;-57
2021/11/07 08:34:52;;;;;;;41.85;29.95;;;;;;;;;;10286691;28;20095;-57
2021/11/07 08:39:55;;;;;;;106.10;95.28;;;;;;;;;;10285984;28;20069;-57
2021/11/07 09:00:46;;;;;;;50.40;40.00;;;;;;;;;;10274986;28;20083;-56
2021/11/07 09:05:54;;;;;;;65.45;49.03;;;;;;;;;;10274816;28;20422;-57
2021/11/07 09:10:55;;;;;;;43.63;35.20;;;;;;;;;;10274849;28;20057;-56
2021/11/07 09:15:54;;;;;;;50.33;32.30;;;;;;;;;;10282938;28;20103;-55
2021/11/07 09:20:59;;;;;;;59.55;38.25;;;;;;;;;;10283927;28;20068;-57
2021/11/07 09:26:15;;;;;;;38.08;24.38;;;;;;;;;;10284911;28;20045;-56
2021/11/07 09:31:18;;;;;;;45.65;34.33;;;;;;;;;;10282773;28;20132;-53
2021/11/07 09:36:20;;;;;;;41.17;30.88;;;;;;;;;;10272925;28;20061;-56
2021/11/07 09:41:28;;;;;;;43.70;30.85;;;;;;;;;;10288213;28;20071;-56
2021/11/07 09:46:40;;;;;;;29.58;22.58;;;;;;;;;;10288586;28;20077;-56
2021/11/07 09:51:38;;;;;;;34.30;23.50;;;;;;;;;;10286246;28;20068;-55
2021/11/07 09:56:43;;;;;;;57.75;36.70;;;;;;;;;;10291742;28;20072;-53
2021/11/07 10:01:42;;;;;;;35.38;23.75;;;;;;;;;;10288495;28;20431;-57
2021/11/07 10:06:44;;;;;;;28.80;22.13;;;;;;;;;;10275324;28;20056;-56
2021/11/07 10:12:01;;;;;;;32.00;20.15;;;;;;;;;;10292365;28;20072;-54
2021/11/07 10:17:00;;;;;;;46.35;38.72;;;;;;;;;;10283760;28;20084;-58
2021/11/07 10:21:58;;;;;;;36.90;25.90;;;;;;;;;;10286999;28;20040;-57
2021/11/07 10:26:59;;;;;;;30.40;26.00;;;;;;;;;;10278587;28;20064;-56
2021/11/07 10:32:04;;;;;;;32.00;22.58;;;;;;;;;;10279570;28;20153;-54
2021/11/07 10:53:14;;;;;;;37.70;25.25;;;;;;;;;;10272619;28;20114;-56
2021/11/07 10:58:13;;;;;;;32.30;23.15;;;;;;;;;;10280617;28;20076;-57
2021/11/07 11:03:16;;;;;;;34.55;21.33;;;;;;;;;;10292904;28;20088;-56
2021/11/07 11:08:16;;;;;;;29.83;21.67;;;;;;;;;;10286877;28;20067;-55
2021/11/07 11:13:24;;;;;;;27.70;21.33;;;;;;;;;;10288786;28;20071;-57
2021/11/07 11:23:52;;;;;;;37.63;23.80;;;;;;;;;;10269293;28;20113;-54
2021/11/07 11:29:06;;;;;;;;;;;;;;;;;;10289173;28;20075;-63
2021/11/07 11:34:12;;;;;;;30.52;21.52;;;;;;;;;;10287246;28;19964;-63
2021/11/07 11:39:14;;;;;;;27.83;21.75;;;;;;;;;;10293276;28;20099;-63
2021/11/07 11:44:14;;;;;;;24.75;18.15;;;;;;;;;;10294816;28;20463;-63
2021/11/07 11:54:58;;;;;;;24.55;18.25;;;;;;;;;;10286777;28;20087;-63
2021/11/07 12:00:18;;;;;;;26.08;17.95;;;;;;;;;;10298611;28;20083;-64
2021/11/07 12:05:24;;;;;;;23.25;16.40;;;;;;;;;;10292613;28;20064;-63
2021/11/07 12:10:29;;;;;;;31.00;22.40;;;;;;;;;;10294078;28;20065;-64
2021/11/07 12:15:44;;;;;;;35.22;29.13;;;;;;;;;;10289778;28;20078;-64
2021/11/07 12:20:44;;;;;;;22.58;19.00;;;;;;;;;;10292234;28;20470;-62
2021/11/07 12:25:43;;;;;;;33.40;25.60;;;;;;;;;;10296076;28;20072;-61
2021/11/07 12:30:41;;;;;;;33.97;23.92;;;;;;;;;;10273003;28;20079;-63
2021/11/07 12:35:43;;;;;;;28.25;20.27;;;;;;;;;;10293320;28;20498;-63
2021/11/07 12:40:45;;;;;;;24.23;17.67;;;;;;;;;;10303631;28;20076;-61
2021/11/07 12:45:47;;;;;;;23.42;16.88;;;;;;;;;;10283572;28;20072;-62
2021/11/07 12:50:53;;;;;;;32.92;22.70;;;;;;;;;;10274516;28;20053;-64
2021/11/07 12:55:53;;;;;;;36.72;25.42;;;;;;;;;;10275208;28;20087;-62
2021/11/07 13:00:51;;;;;;;61.38;42.95;;;;;;;;;;10284934;28;20506;-63
2021/11/07 13:05:52;;;;;;;67.65;50.70;;;;;;;;;;10293924;28;20075;-62
2021/11/07 13:10:57;;;;;;;23.92;17.83;;;;;;;;;;10269437;28;20091;-64
2021/11/07 13:16:09;;;;;;;30.08;24.23;;;;;;;;;;10269469;28;20088;-64
2021/11/07 13:26:36;;;;;;;33.08;22.42;;;;;;;;;;10287236;28;20052;-63
2021/11/07 13:31:47;;;;;;;31.77;23.92;;;;;;;;;;10292026;28;20103;-63
2021/11/07 13:36:47;;;;;;;40.17;30.05;;;;;;;;;;10294169;28;20068;-63
2021/11/07 13:41:50;;;;;;;31.00;25.52;;;;;;;;;;10277027;28;20076;-63
2021/11/07 13:46:51;;;;;;;23.90;19.67;;;;;;;;;;10282573;28;20052;-63
2021/11/07 13:51:53;;;;;;;24.48;17.40;;;;;;;;;;10284675;28;20116;-63
2021/11/07 13:56:52;;;;;;;30.40;18.35;;;;;;;;;;10306132;28;20595;-63
2021/11/07 14:01:52;;;;;;;25.17;19.33;;;;;;;;;;10300156;28;20468;-63
2021/11/07 14:06:50;;;;;;;22.77;18.85;;;;;;;;;;10284315;28;20065;-64
2021/11/07 14:11:50;;;;;;;26.60;19.50;;;;;;;;;;10292525;28;20049;-62
2021/11/07 14:16:53;;;;;;;29.25;22.20;;;;;;;;;;10292793;28;20072;-63
2021/11/07 14:21:56;;;;;;;30.75;21.52;;;;;;;;;;10292199;28;20087;-64
2021/11/07 14:27:01;;;;;;;32.47;24.85;;;;;;;;;;10286857;28;20073;-64
2021/11/07 14:32:04;;;;;;;31.85;22.23;;;;;;;;;;10287285;28;20068;-64
2021/11/07 14:37:06;;;;;;;35.85;25.05;;;;;;;;;;10290963;28;20080;-64
2021/11/07 14:42:13;;;;;;;31.73;25.08;;;;;;;;;;10289616;28;20064;-63
2021/11/07 14:47:18;;;;;;;37.25;30.17;;;;;;;;;;10291156;28;20467;-63
2021/11/07 14:52:37;;;;;;;84.28;63.58;;;;;;;;;;10292403;28;20069;-63
2021/11/07 15:02:58;;;;;;;116.82;97.63;;;;;;;;;;10273673;28;20099;-63
2021/11/07 15:08:10;;;;;;;125.60;100.82;;;;;;;;;;10289606;28;20045;-64
2021/11/07 15:13:22;;;;;;;77.60;59.42;;;;;;;;;;10289482;28;20064;-64
2021/11/07 15:18:38;;;;;;;77.10;60.63;;;;;;;;;;10289237;28;20076;-63
2021/11/07 15:23:39;;;;;;;96.97;78.35;;;;;;;;;;10289355;28;20076;-63
2021/11/07 15:28:37;;;;;;;82.28;60.10;;;;;;;;;;10289319;28;20092;-62
2021/11/07 15:33:43;;;;;;;71.90;52.55;;;;;;;;;;10289128;28;20076;-63
2021/11/07 15:38:43;;;;;;;78.35;58.65;;;;;;;;;;10285942;28;20072;-63
2021/11/07 15:43:48;;;;;;;83.75;60.88;;;;;;;;;;10300726;28;20075;-64
2021/11/07 15:48:49;;;;;;;127.00;95.15;;;;;;;;;;10282552;28;20069;-63
2021/11/07 15:53:57;;;;;;;151.38;116.47;;;;;;;;;;10290637;28;20143;-65
2021/11/07 15:59:19;;;;;;;157.20;112.60;;;;;;;;;;10274834;28;20072;-63
2021/11/07 16:04:31;;;;;;;196.93;136.32;;;;;;;;;;10286485;28;20154;-63
2021/11/07 16:09:45;;;;;;;96.20;71.45;;;;;;;;;;10286142;28;20059;-62
2021/11/07 16:19:59;;;;;;;310.45;178.40;;;;;;;;;;10285319;28;20092;-64
2021/11/07 16:25:00;;;;;;;311.80;183.82;;;;;;;;;;10286989;28;20359;-66
2021/11/07 16:30:03;;;;;;;88.63;51.78;;;;;;;;;;10287052;28;20049;-63
2021/11/07 16:35:06;;;;;;;92.78;68.97;;;;;;;;;;10275663;28;20100;-63
2021/11/07 16:40:13;;;;;;;84.95;62.80;;;;;;;;;;10274434;28;20076;-62
2021/11/07 16:45:11;;;;;;;55.20;36.92;;;;;;;;;;10275397;28;20051;-64
2021/11/07 16:50:11;;;;;;;67.53;50.38;;;;;;;;;;10275034;28;20493;-64
2021/11/07 16:55:25;;;;;;;69.63;52.95;;;;;;;;;;10296817;28;20076;-64
2021/11/07 17:00:27;;;;;;;46.75;35.53;;;;;;;;;;10274960;28;20509;-64
2021/11/07 17:05:28;;;;;;;45.00;37.50;;;;;;;;;;10275609;28;20463;-64
2021/11/07 17:10:32;;;;;;;40.00;32.97;;;;;;;;;;10275177;28;20065;-64
2021/11/07 17:15:34;;;;;;;75.45;59.05;;;;;;;;;;10274554;28;20041;-64
2021/11/07 17:20:48;;;;;;;61.38;39.28;;;;;;;;;;10285608;28;20143;-64
2021/11/07 17:25:52;;;;;;;56.88;43.17;;;;;;;;;;10285764;28;20509;-63
2021/11/07 17:30:54;;;;;;;69.70;48.00;;;;;;;;;;10287930;28;20052;-63
2021/11/07 17:35:57;;;;;;;53.30;38.72;;;;;;;;;;10282048;28;20541;-64
2021/11/07 17:41:24;;;;;;;49.03;36.45;;;;;;;;;;10272277;28;20076;-63
2021/11/07 17:56:56;;;;;;;48.60;35.97;;;;;;;;;;10281447;28;20171;-64
2021/11/07 18:01:54;;;;;;;55.33;40.80;;;;;;;;;;10274165;28;20064;-64
2021/11/07 18:06:56;;;;;;;67.55;47.47;;;;;;;;;;10273882;28;20052;-64
2021/11/07 18:11:58;;;;;;;44.42;35.33;;;;;;;;;;10273841;28;20045;-64
2021/11/07 18:16:57;;;;;;;47.33;34.65;;;;;;;;;;10275978;28;20073;-63
2021/11/07 18:22:05;;;;;;;52.13;36.38;;;;;;;;;;10276716;28;20068;-63
2021/11/07 18:27:09;;;;;;;48.38;34.50;;;;;;;;;;10279108;28;20111;-63
2021/11/07 18:32:07;;;;;;;56.10;39.63;;;;;;;;;;10282936;28;20521;-63
2021/11/07 18:37:06;;;;;;;51.95;39.05;;;;;;;;;;10287465;28;20311;-63
2021/11/07 18:42:06;;;;;;;47.05;35.85;;;;;;;;;;10280516;28;20065;-63
2021/11/07 18:47:05;;;;;;;44.22;34.67;;;;;;;;;;10280362;28;20064;-63
2021/11/07 18:52:04;;;;;;;44.88;35.15;;;;;;;;;;10287488;28;20068;-63
2021/11/07 18:57:03;;;;;;;51.92;36.35;;;;;;;;;;10285560;28;20521;-63
2021/11/07 19:02:02;;;;;;;45.78;33.75;;;;;;;;;;10279536;28;20060;-64
2021/11/07 19:07:01;;;;;;;47.08;35.78;;;;;;;;;;10278654;28;20061;-63
2021/11/07 19:12:00;;;;;;;45.88;35.33;;;;;;;;;;10281560;28;20068;-64
2021/11/07 19:16:58;;;;;;;44.90;34.28;;;;;;;;;;10287176;28;20072;-63
2021/11/07 19:21:58;;;;;;;50.80;37.13;;;;;;;;;;10277996;28;20478;-63
2021/11/07 19:26:56;;;;;;;45.60;33.88;;;;;;;;;;10278718;28;20048;-63
2021/11/07 19:31:54;;;;;;;42.83;33.88;;;;;;;;;;10278142;28;20080;-63
2021/11/07 19:36:53;;;;;;;43.30;32.65;;;;;;;;;;10277613;28;20053;-64
2021/11/07 19:41:52;;;;;;;43.38;32.15;;;;;;;;;;10279796;28;20080;-63
2021/11/07 19:46:54;;;;;;;41.25;33.03;;;;;;;;;;10288911;28;20095;-63
2021/11/07 19:51:53;;;;;;;53.85;37.70;;;;;;;;;;10291380;28;20064;-63
2021/11/07 19:56:52;;;;;;;43.33;34.80;;;;;;;;;;10284843;28;20091;-64
2021/11/07 20:07:25;;;;;;;46.80;32.72;;;;;;;;;;10280876;28;20048;-63
2021/11/07 20:12:26;;;;;;;44.35;32.97;;;;;;;;;;10287244;28;20041;-63
2021/11/07 20:17:26;;;;;;;40.83;32.35;;;;;;;;;;10287292;28;20051;-64
2021/11/07 20:22:25;;;;;;;56.30;44.58;;;;;;;;;;10287022;28;20076;-64
2021/11/07 20:27:28;;;;;;;48.97;34.90;;;;;;;;;;10281300;28;20045;-64
2021/11/07 20:32:29;;;;;;;50.47;34.88;;;;;;;;;;10276003;28;20481;-65
2021/11/07 20:37:30;;;;;;;59.33;43.78;;;;;;;;;;10290400;28;20049;-65
2021/11/07 20:42:31;;;;;;;57.55;41.30;;;;;;;;;;10276242;28;20080;-65
2021/11/07 20:47:41;;;;;;;44.75;33.90;;;;;;;;;;10276222;28;20569;-65
2021/11/07 20:52:43;;;;;;;45.85;30.73;;;;;;;;;;10288367;28;20048;-65
2021/11/07 20:57:54;;;;;;;43.63;32.85;;;;;;;;;;10276040;28;20049;-65
2021/11/07 21:02:57;;;;;;;48.85;33.20;;;;;;;;;;10276305;28;20083;-66
2021/11/07 21:07:59;;;;;;;54.30;34.97;;;;;;;;;;10285399;28;20064;-65
2021/11/07 21:13:02;;;;;;;48.67;34.00;;;;;;;;;;10285113;28;20060;-64
2021/11/07 21:18:27;;;;;;;48.08;33.75;;;;;;;;;;10278769;28;20071;-65
2021/11/07 21:23:32;;;;;;;47.00;34.67;;;;;;;;;;10278734;28;20144;-63
2021/11/07 21:28:32;;;;;;;49.40;35.05;;;;;;;;;;10284715;28;20421;-65
2021/11/07 21:33:43;;;;;;;46.78;34.60;;;;;;;;;;10288349;28;20053;-64
2021/11/07 21:38:44;;;;;;;51.95;34.95;;;;;;;;;;10281753;28;20437;-64
2021/11/07 21:43:44;;;;;;;70.68;45.50;;;;;;;;;;10282198;28;20072;-64
2021/11/07 21:48:44;;;;;;;58.50;39.55;;;;;;;;;;10275662;28;20080;-64
2021/11/07 21:53:42;;;;;;;52.03;36.08;;;;;;;;;;10282869;28;20075;-63
2021/11/07 21:58:40;;;;;;;50.90;34.65;;;;;;;;;;10300024;28;20068;-64
2021/11/07 22:03:39;;;;;;;47.40;32.72;;;;;;;;;;10305126;28;20526;-65
2021/11/07 22:08:39;;;;;;;45.53;32.60;;;;;;;;;;10287678;28;20451;-64
2021/11/07 22:13:37;;;;;;;52.03;34.55;;;;;;;;;;10295711;28;20068;-65
2021/11/07 22:18:39;;;;;;;51.70;34.08;;;;;;;;;;10298003;28;20098;-64
2021/11/07 22:23:41;;;;;;;45.88;35.67;;;;;;;;;;10284875;28;20061;-64
2021/11/07 22:28:42;;;;;;;52.17;31.83;;;;;;;;;;10302222;28;20107;-65
2021/11/07 22:33:44;;;;;;;48.05;33.00;;;;;;;;;;10300332;28;20128;-65
2021/11/07 22:38:44;;;;;;;50.92;34.40;;;;;;;;;;10281049;28;20595;-65
2021/11/07 22:43:43;;;;;;;50.60;35.30;;;;;;;;;;10281263;28;20072;-65
2021/11/07 22:48:42;;;;;;;56.50;34.92;;;;;;;;;;10292784;28;20068;-65
2021/11/07 22:53:44;;;;;;;51.70;34.67;;;;;;;;;;10282758;28;20072;-64
2021/11/07 22:59:08;;;;;;;51.20;34.25;;;;;;;;;;10289793;28;20079;-65
2021/11/07 23:04:20;;;;;;;54.45;35.58;;;;;;;;;;10288617;28;20103;-65
2021/11/07 23:14:39;;;;;;;50.95;36.75;;;;;;;;;;10278787;28;20071;-65
2021/11/07 23:19:41;;;;;;;47.40;34.88;;;;;;;;;;10278727;28;20075;-65
2021/11/07 23:24:40;;;;;;;45.03;32.40;;;;;;;;;;10289823;28;20084;-64
2021/11/07 23:29:39;;;;;;;48.00;33.42;;;;;;;;;;10288838;28;20076;-65
2021/11/07 23:34:39;;;;;;;51.45;32.70;;;;;;;;;;10289467;28;20483;-64
2021/11/07 23:39:39;;;;;;;46.25;34.22;;;;;;;;;;10286516;28;20073;-65
2021/11/07 23:44:38;;;;;;;46.95;34.30;;;;;;;;;;10289359;28;20091;-64
2021/11/07 23:49:38;;;;;;;49.60;34.15;;;;;;;;;;10282029;28;20080;-65
2021/11/07 23:54:37;;;;;;;49.00;31.77;;;;;;;;;;10299041;28;20398;-65
2021/11/07 23:59:37;;;;;;;44.80;32.70;;;;;;;;;;10295114;28;20052;-65
